Time;durP1;ratioP1;P1;durP2;ratioP2;P2;SDS_P1;SDS_P2;PMS_P1;PMS_P2;Temp;Humidity;BMP_temperature;BMP_pressure;BME280_temperature;BME280_humidity;BME280_pressure;Samples;Min_cycle;Max_cycle;Signal;HPM_P1;HPM_P2
2023/07/25 00:04:46;;;;;;;10.63;6.50;;;;;;;;;;4922110;28;20052;-84
2023/07/25 00:17:17;;;;;;;18.13;9.38;;;;;;;;;;4763590;30;20085;-84
2023/07/25 00:21:14;;;;;;;;;;;;;;;;;;;;;
2023/07/25 00:28:07;;;;;;;12.52;7.13;;;;;;;;;;4919307;29;20126;-84
2023/07/25 00:30:42;;;;;;;;;;;;;;;;;;4912304;29;20055;-83
2023/07/25 00:33:35;;;;;;;14.32;8.63;;;;;;;;;;4916227;29;20366;-83
2023/07/25 00:36:14;;;;;;;;;;;;;;;;;;;;;
2023/07/25 00:39:05;;;;;;;16.25;9.27;;;;;;;;;;4933961;29;20039;-83
2023/07/25 00:47:30;;;;;;;11.52;6.55;;;;;;;;;;4912640;29;20048;-83
2023/07/25 00:49:59;;;;;;;9.77;6.43;;;;;;;;;;4897009;29;20123;-83
2023/07/25 00:52:25;;;;;;;13.45;6.43;;;;;;;;;;4913821;29;20223;-83
2023/07/25 00:54:54;;;;;;;13.55;7.22;;;;;;;;;;4913330;29;20036;-83
2023/07/25 00:57:23;;;;;;;12.55;6.88;;;;;;;;;;4896575;29;20040;-84
2023/07/25 00:59:49;;;;;;;11.85;7.63;;;;;;;;;;4882943;29;20037;-83
2023/07/25 01:02:18;;;;;;;15.45;7.90;;;;;;;;;;4892590;29;20041;-84
2023/07/25 01:04:47;;;;;;;12.75;7.40;;;;;;;;;;4928944;29;20104;-83
2023/07/25 01:07:18;;;;;;;14.10;8.73;;;;;;;;;;4921118;29;20056;-84
2023/07/25 01:09:47;;;;;;;13.90;8.30;;;;;;;;;;4921852;29;20775;-83
2023/07/25 01:12:18;;;;;;;16.25;9.63;;;;;;;;;;4913134;29;20538;-84
2023/07/25 01:15:18;;;;;;;18.33;11.68;;;;;;;;;;4914079;29;20036;-84
2023/07/25 01:18:05;;;;;;;21.90;14.98;;;;;;;;;;4905014;29;20107;-83
2023/07/25 01:20:34;;;;;;;19.95;13.75;;;;;;;;;;4915827;29;20039;-84
2023/07/25 01:23:03;;;;;;;29.00;17.65;;;;;;;;;;4912750;29;20055;-83
2023/07/25 01:47:45;;;;;;;;;;;;;;;;;;;;;
2023/07/25 01:55:58;;;;;;;14.38;9.95;;;;;;;;;;4913625;29;20068;-84
2023/07/25 01:58:24;;;;;;;19.27;10.93;;;;;;;;;;4899586;29;20728;-82
2023/07/25 02:00:58;;;;;;;22.10;13.13;;;;;;;;;;4903288;29;20044;-82
2023/07/25 02:03:24;;;;;;;18.60;12.15;;;;;;;;;;4907156;29;20036;-82
2023/07/25 02:05:50;;;;;;;21.95;9.32;;;;;;;;;;4919291;29;20128;-82
2023/07/25 02:08:17;;;;;;;14.77;7.75;;;;;;;;;;4896414;29;20047;-84
2023/07/25 02:11:10;;;;;;;10.20;7.40;;;;;;;;;;4910266;29;20040;-83
2023/07/25 03:39:15;;;;;;;7.85;3.80;;;;;;;;;;4849226;29;20077;-84
2023/07/25 04:14:07;;;;;;;22.58;17.27;;;;;;;;;;4907707;29;20060;-85
2023/07/25 04:16:41;;;;;;;25.75;18.35;;;;;;;;;;4930696;29;20047;-84
2023/07/25 04:19:19;;;;;;;24.17;18.63;;;;;;;;;;4931269;28;20455;-84
2023/07/25 04:22:13;;;;;;;;;;;;;;;;;;;;;
2023/07/25 04:24:51;;;;;;;11.23;4.43;;;;;;;;;;4952652;28;20033;-84
2023/07/25 04:27:34;;;;;;;8.80;3.42;;;;;;;;;;4925503;29;20079;-84
2023/07/25 04:30:16;;;;;;;9.95;3.78;;;;;;;;;;4926135;28;20529;-84
2023/07/25 04:32:55;;;;;;;7.20;3.92;;;;;;;;;;4940499;29;20043;-84
2023/07/25 04:35:37;;;;;;;10.57;4.07;;;;;;;;;;4934575;28;20043;-84
2023/07/25 04:38:06;;;;;;;6.95;3.85;;;;;;;;;;4944550;28;20047;-84
2023/07/25 04:40:53;;;;;;;11.02;3.38;;;;;;;;;;4932331;29;20078;-83
2023/07/25 04:43:30;;;;;;;8.32;3.15;;;;;;;;;;4939121;29;20967;-84
2023/07/25 04:46:13;;;;;;;7.07;2.65;;;;;;;;;;4914306;28;20044;-84
2023/07/25 04:48:53;;;;;;;8.30;3.00;;;;;;;;;;4915391;29;20886;-84
2023/07/25 04:51:35;;;;;;;8.38;2.65;;;;;;;;;;4926050;29;20063;-84
2023/07/25 04:54:11;;;;;;;;;;;;;;;;;;;;;
2023/07/25 04:56:59;;;;;;;12.85;3.63;;;;;;;;;;4923665;29;19921;-82
2023/07/25 04:59:31;;;;;;;9.82;2.35;;;;;;;;;;4911029;29;20063;-84
2023/07/25 05:02:15;;;;;;;10.48;3.03;;;;;;;;;;4911035;29;20050;-84
2023/07/25 05:04:46;;;;;;;7.68;2.83;;;;;;;;;;4920095;29;20050;-84
2023/07/25 05:07:13;;;;;;;8.05;2.70;;;;;;;;;;4869855;29;20041;-83
2023/07/25 05:09:47;;;;;;;5.03;2.63;;;;;;;;;;4855409;29;20072;-84
2023/07/25 05:12:13;;;;;;;4.07;2.05;;;;;;;;;;4871317;29;20050;-84
2023/07/25 05:14:40;;;;;;;8.00;3.45;;;;;;;;;;4891130;29;20060;-85
2023/07/25 05:57:21;;;;;;;;;;;;;;;;;;;;;
2023/07/25 06:00:48;;;;;;;15.68;9.55;;;;;;;;;;4867355;29;20043;-81
2023/07/25 06:03:45;;;;;;;14.55;8.85;;;;;;;;;;4822797;29;20050;-81
2023/07/25 06:10:33;;;;;;;12.30;6.95;;;;;;;;;;4920245;29;20767;-81
2023/07/25 06:13:38;;;;;;;11.30;6.57;;;;;;;;;;4936070;29;20138;-81
2023/07/25 07:06:55;;;;;;;5.85;2.60;;;;;;;;;;4931655;29;20031;-81
2023/07/25 07:09:51;;;;;;;5.68;2.30;;;;;;;;;;4933598;29;20054;-81
2023/07/25 07:12:20;;;;;;;7.68;3.08;;;;;;;;;;4841155;29;20049;-81
2023/07/25 07:15:24;;;;;;;5.50;1.98;;;;;;;;;;4914592;29;20048;-81
2023/07/25 07:18:22;;;;;;;8.27;2.40;;;;;;;;;;4917880;29;20497;-81
2023/07/25 07:21:18;;;;;;;6.75;2.80;;;;;;;;;;4912127;29;20048;-81
2023/07/25 07:24:10;;;;;;;6.78;1.95;;;;;;;;;;4904412;29;20472;-82
2023/07/25 07:27:02;;;;;;;6.28;2.45;;;;;;;;;;4923058;29;20039;-81
2023/07/25 07:29:44;;;;;;;6.13;1.87;;;;;;;;;;4911057;29;20582;-81
2023/07/25 07:32:12;;;;;;;;;;;;;;;;;;4885651;29;20637;-81
2023/07/25 07:34:50;;;;;;;7.47;2.20;;;;;;;;;;4917517;29;20013;-81
2023/07/25 07:40:44;;;;;;;4.15;1.67;;;;;;;;;;4878503;29;20067;-81
2023/07/25 07:46:38;;;;;;;;;;;;;;;;;;;;;
2023/07/25 07:49:34;;;;;;;3.85;1.55;;;;;;;;;;4917353;29;20056;-81
2023/07/25 07:52:21;;;;;;;4.28;1.83;;;;;;;;;;4905936;29;20048;-81
2023/07/25 07:54:59;;;;;;;3.47;1.40;;;;;;;;;;4891859;29;20145;-81
2023/07/25 07:57:43;;;;;;;;;;;;;;;;;;;;;
2023/07/25 08:00:28;;;;;;;4.18;1.90;;;;;;;;;;4910399;29;20040;-81
2023/07/25 08:09:38;;;;;;;;;;;;;;;;;;4904740;29;20096;-81
2023/07/25 08:12:18;;;;;;;4.40;1.17;;;;;;;;;;4917379;23;20368;-82
2023/07/25 08:15:09;;;;;;;6.88;1.50;;;;;;;;;;4922775;29;20471;-81
2023/07/25 08:18:08;;;;;;;2.72;1.10;;;;;;;;;;4906816;29;20044;-81
2023/07/25 08:21:10;;;;;;;8.57;2.53;;;;;;;;;;4886057;29;20059;-81
2023/07/25 08:39:43;;;;;;;5.30;1.63;;;;;;;;;;4909069;29;20123;-81
2023/07/25 08:42:49;;;;;;;3.70;1.40;;;;;;;;;;4925572;29;20043;-81
2023/07/25 08:45:43;;;;;;;4.93;1.88;;;;;;;;;;4933816;29;20496;-81
2023/07/25 08:58:21;;;;;;;5.20;1.40;;;;;;;;;;4892706;29;20064;-82
2023/07/25 09:01:28;;;;;;;6.15;1.55;;;;;;;;;;4884662;29;20060;-82
2023/07/25 09:19:01;;;;;;;;;;;;;;;;;;;;;
2023/07/25 09:21:57;;;;;;;4.30;1.95;;;;;;;;;;4908174;29;20050;-81
2023/07/25 09:27:34;;;;;;;8.02;2.28;;;;;;;;;;4886062;29;20095;-81
2023/07/25 09:30:18;;;;;;;9.18;3.15;;;;;;;;;;4875004;29;20061;-81
2023/07/25 09:33:03;;;;;;;6.13;2.00;;;;;;;;;;4860404;29;20514;-81
2023/07/25 09:35:49;;;;;;;5.57;1.95;;;;;;;;;;4875193;29;20045;-80
2023/07/25 09:41:11;;;;;;;4.68;2.15;;;;;;;;;;4863504;29;20113;-80
2023/07/25 09:44:02;;;;;;;3.80;2.05;;;;;;;;;;4862291;29;20190;-81
2023/07/25 09:47:05;;;;;;;6.57;2.10;;;;;;;;;;4863391;29;20038;-81
2023/07/25 09:49:34;;;;;;;7.05;2.08;;;;;;;;;;4848747;29;20052;-81
2023/07/25 09:52:04;;;;;;;5.45;2.53;;;;;;;;;;4869692;29;20073;-81
2023/07/25 09:54:41;;;;;;;11.00;3.08;;;;;;;;;;4854136;29;20054;-81
2023/07/25 09:57:15;;;;;;;7.18;2.47;;;;;;;;;;4890253;29;20044;-80
2023/07/25 10:00:05;;;;;;;9.25;2.00;;;;;;;;;;4883274;29;20055;-81
2023/07/25 10:02:40;;;;;;;7.05;2.20;;;;;;;;;;4921267;29;20134;-81
2023/07/25 10:05:12;;;;;;;5.95;2.03;;;;;;;;;;4929057;29;20424;-81
2023/07/25 10:07:49;;;;;;;5.03;2.28;;;;;;;;;;4931106;29;20119;-80
2023/07/25 10:10:20;;;;;;;7.50;2.58;;;;;;;;;;4930206;29;20044;-80
2023/07/25 10:12:53;;;;;;;4.78;2.17;;;;;;;;;;4930104;29;20047;-80
2023/07/25 10:15:25;;;;;;;4.80;2.08;;;;;;;;;;4943190;29;20549;-81
2023/07/25 10:18:07;;;;;;;8.05;2.28;;;;;;;;;;4928305;29;20396;-80
2023/07/25 10:20:56;;;;;;;9.25;2.90;;;;;;;;;;4929398;29;20051;-81
2023/07/25 10:25:53;;;;;;;11.68;3.40;;;;;;;;;;4909257;23;20054;-81
2023/07/25 10:28:24;;;;;;;15.82;4.10;;;;;;;;;;4936345;29;20054;-81
2023/07/25 10:30:52;;;;;;;9.55;3.13;;;;;;;;;;4951051;29;20039;-82
2023/07/25 10:33:18;;;;;;;9.73;2.72;;;;;;;;;;4935483;28;20066;-81
2023/07/25 10:35:54;;;;;;;10.95;2.92;;;;;;;;;;4942287;29;20043;-82
2023/07/25 10:38:32;;;;;;;7.28;2.90;;;;;;;;;;4933955;29;20082;-82
2023/07/25 10:41:09;;;;;;;7.63;2.60;;;;;;;;;;4933255;29;20050;-82
2023/07/25 10:43:48;;;;;;;8.52;2.88;;;;;;;;;;4942094;29;20066;-82
2023/07/25 10:46:17;;;;;;;14.05;2.92;;;;;;;;;;4936780;29;20035;-82
2023/07/25 10:48:45;;;;;;;6.50;2.15;;;;;;;;;;4949609;28;20110;-82
2023/07/25 10:51:12;;;;;;;8.43;2.88;;;;;;;;;;4933188;29;20442;-82
2023/07/25 10:53:39;;;;;;;7.55;2.30;;;;;;;;;;4950004;29;20137;-82
2023/07/25 10:56:05;;;;;;;8.82;2.03;;;;;;;;;;4942227;29;20082;-82
2023/07/25 10:58:35;;;;;;;8.50;2.17;;;;;;;;;;4933379;28;20135;-82
2023/07/25 11:01:02;;;;;;;3.58;1.67;;;;;;;;;;4934958;29;20053;-82
2023/07/25 11:03:28;;;;;;;5.07;2.03;;;;;;;;;;4952519;29;20039;-81
2023/07/25 11:06:06;;;;;;;7.22;1.92;;;;;;;;;;4927691;29;20079;-82
2023/07/25 11:08:51;;;;;;;7.28;2.03;;;;;;;;;;4950139;28;20052;-81
2023/07/25 11:11:17;;;;;;;5.97;2.40;;;;;;;;;;4944630;29;20047;-81
2023/07/25 11:13:43;;;;;;;5.40;2.13;;;;;;;;;;4960905;28;20128;-81
2023/07/25 11:16:10;;;;;;;6.50;2.30;;;;;;;;;;4955441;28;20047;-81
2023/07/25 11:18:37;;;;;;;4.25;1.60;;;;;;;;;;4936081;29;20055;-81
2023/07/25 11:21:03;;;;;;;9.25;1.98;;;;;;;;;;4935859;29;20039;-81
2023/07/25 11:23:30;;;;;;;4.70;1.50;;;;;;;;;;4953952;28;20090;-81
2023/07/25 11:26:00;;;;;;;5.85;2.42;;;;;;;;;;4951902;29;20135;-80
2023/07/25 11:28:26;;;;;;;5.80;2.03;;;;;;;;;;4936476;29;20090;-81
2023/07/25 11:30:53;;;;;;;6.18;1.98;;;;;;;;;;4952078;29;20043;-81
2023/07/25 11:33:19;;;;;;;8.18;3.33;;;;;;;;;;4952190;29;20220;-81
2023/07/25 11:35:45;;;;;;;13.10;9.68;;;;;;;;;;4953136;29;20758;-81
2023/07/25 11:38:12;;;;;;;12.48;7.28;;;;;;;;;;4942761;29;20039;-81
2023/07/25 11:40:40;;;;;;;9.32;4.18;;;;;;;;;;4951437;29;20395;-81
2023/07/25 11:43:13;;;;;;;5.28;2.40;;;;;;;;;;4936391;29;20134;-81
2023/07/25 11:45:39;;;;;;;6.15;2.45;;;;;;;;;;4933139;28;20039;-81
2023/07/25 11:48:08;;;;;;;9.32;1.70;;;;;;;;;;4925762;29;20050;-81
2023/07/25 11:50:34;;;;;;;6.22;2.53;;;;;;;;;;4951413;29;20043;-81
2023/07/25 11:53:01;;;;;;;6.00;2.08;;;;;;;;;;4935973;29;20134;-81
2023/07/25 11:55:27;;;;;;;8.00;2.50;;;;;;;;;;4935630;29;20043;-81
2023/07/25 11:57:54;;;;;;;7.32;2.88;;;;;;;;;;4931664;29;20051;-80
2023/07/25 12:00:24;;;;;;;6.88;2.80;;;;;;;;;;4923853;29;20051;-80
2023/07/25 12:02:49;;;;;;;10.35;2.80;;;;;;;;;;4926622;29;20128;-81
2023/07/25 12:05:29;;;;;;;6.90;2.47;;;;;;;;;;4939285;29;20522;-81
2023/07/25 12:08:02;;;;;;;6.18;2.67;;;;;;;;;;4920152;29;20039;-80
2023/07/25 12:10:37;;;;;;;5.53;2.13;;;;;;;;;;4947625;28;20043;-80
2023/07/25 12:13:08;;;;;;;7.03;2.72;;;;;;;;;;4935243;29;20070;-81
2023/07/25 12:15:49;;;;;;;5.78;2.40;;;;;;;;;;4924309;29;20557;-81
2023/07/25 12:18:34;;;;;;;5.55;2.30;;;;;;;;;;4935550;29;20043;-81
2023/07/25 12:21:01;;;;;;;8.73;3.05;;;;;;;;;;4946829;28;20051;-81
2023/07/25 12:23:32;;;;;;;8.85;2.35;;;;;;;;;;4951732;28;20066;-80
2023/07/25 12:26:00;;;;;;;4.68;1.90;;;;;;;;;;4950772;29;20145;-81
2023/07/25 12:28:38;;;;;;;5.35;1.70;;;;;;;;;;4946648;29;20479;-80
2023/07/25 12:31:04;;;;;;;7.82;1.75;;;;;;;;;;4931133;29;20043;-80
2023/07/25 12:33:30;;;;;;;6.63;2.40;;;;;;;;;;4950964;29;20079;-80
2023/07/25 12:35:57;;;;;;;4.25;2.15;;;;;;;;;;4925130;29;20047;-81
2023/07/25 12:38:23;;;;;;;5.07;2.17;;;;;;;;;;4950296;29;20074;-81
2023/07/25 12:40:49;;;;;;;5.68;2.25;;;;;;;;;;4933894;29;20067;-80
2023/07/25 12:43:15;;;;;;;4.25;1.85;;;;;;;;;;4927974;29;20054;-80
2023/07/25 12:45:42;;;;;;;8.38;3.15;;;;;;;;;;4934823;29;20031;-80
2023/07/25 12:48:08;;;;;;;4.43;1.70;;;;;;;;;;4950462;29;20490;-80
2023/07/25 12:50:34;;;;;;;4.70;1.52;;;;;;;;;;4947727;28;20885;-80
2023/07/25 12:53:00;;;;;;;5.45;2.00;;;;;;;;;;4949630;28;20043;-80
2023/07/25 12:55:52;;;;;;;7.85;3.05;;;;;;;;;;4978158;23;20082;-81
2023/07/25 12:58:58;;;;;;;4.13;1.73;;;;;;;;;;4925235;29;20105;-81
2023/07/25 13:01:48;;;;;;;8.25;4.28;;;;;;;;;;4923763;29;20483;-80
2023/07/25 13:11:28;;;;;;;9.27;5.85;;;;;;;;;;4933606;29;20056;-81
2023/07/25 13:14:00;;;;;;;;;;;;;;;;;;4914840;29;20052;-81
2023/07/25 13:16:40;;;;;;;6.10;2.08;;;;;;;;;;4925999;29;19915;-81
2023/07/25 13:19:42;;;;;;;4.75;1.58;;;;;;;;;;4930961;29;20046;-81
2023/07/25 13:22:27;;;;;;;4.72;2.00;;;;;;;;;;4868743;29;20824;-81
2023/07/25 13:25:32;;;;;;;;;;;;;;;;;;;;;
2023/07/25 13:31:10;;;;;;;4.15;2.03;;;;;;;;;;4930456;29;20047;-81
2023/07/25 13:34:09;;;;;;;7.53;2.13;;;;;;;;;;4919777;29;20460;-81
2023/07/25 13:36:58;;;;;;;5.35;2.05;;;;;;;;;;4921922;29;20835;-81
2023/07/25 14:00:34;;;;;;;;;;;;;;;;;;;;;
2023/07/25 14:10:29;;;;;;;;;;;;;;;;;;;;;
2023/07/25 14:16:43;;;;;;;3.60;1.20;;;;;;;;;;4939250;29;20043;-81
2023/07/25 14:19:25;;;;;;;;;;;;;;;;;;;;;
2023/07/25 14:22:33;;;;;;;;;;;;;;;;;;;;;
2023/07/25 14:40:43;;;;;;;;;;;;;;;;;;;;;
2023/07/25 14:43:33;;;;;;;;;;;;;;;;;;;;;
2023/07/25 14:46:14;;;;;;;4.97;1.15;;;;;;;;;;4931201;29;20046;-80
2023/07/25 14:49:09;;;;;;;3.25;0.70;;;;;;;;;;4931369;29;20744;-81
2023/07/25 14:52:14;;;;;;;;;;;;;;;;;;;;;
2023/07/25 15:01:23;;;;;;;6.78;1.00;;;;;;;;;;4913115;29;20051;-81
2023/07/25 15:04:18;;;;;;;2.53;1.02;;;;;;;;;;4912658;29;20127;-80
2023/07/25 15:06:52;;;;;;;5.10;1.20;;;;;;;;;;4899638;29;20106;-81
2023/07/25 15:09:42;;;;;;;5.00;1.30;;;;;;;;;;4909328;29;20036;-80
2023/07/25 15:16:19;;;;;;;6.28;1.13;;;;;;;;;;4901672;29;20108;-80
2023/07/25 15:19:09;;;;;;;;;;;;;;;;;;;;;
2023/07/25 15:28:10;;;;;;;4.30;1.02;;;;;;;;;;4889530;29;20060;-80
2023/07/25 15:31:14;;;;;;;3.22;0.90;;;;;;;;;;4876101;29;20053;-80
2023/07/25 15:34:37;;;;;;;;;;;;;;;;;;;;;
2023/07/25 15:37:19;;;;;;;5.82;0.60;;;;;;;;;;4896884;29;20047;-80
2023/07/25 15:40:07;;;;;;;;;;;;;;;;;;;;;
2023/07/25 15:42:42;;;;;;;3.13;1.02;;;;;;;;;;4948604;29;20406;-80
2023/07/25 15:45:19;;;;;;;4.15;1.00;;;;;;;;;;4947427;29;20049;-80
2023/07/25 15:47:59;;;;;;;5.13;1.20;;;;;;;;;;4919570;29;20042;-80
2023/07/25 15:54:01;;;;;;;2.08;0.80;;;;;;;;;;4933956;28;20106;-80
2023/07/25 15:56:49;;;;;;;;;;;;;;;;;;;;;
2023/07/25 15:59:25;;;;;;;4.88;0.75;;;;;;;;;;4927798;29;20038;-80
2023/07/25 16:01:57;;;;;;;6.55;0.75;;;;;;;;;;4918446;29;20054;-80
2023/07/25 16:04:23;;;;;;;6.07;0.90;;;;;;;;;;4911396;29;20040;-82
2023/07/25 16:06:51;;;;;;;3.22;0.90;;;;;;;;;;4929809;29;20048;-80
2023/07/25 16:09:17;;;;;;;4.25;0.93;;;;;;;;;;4916377;29;20403;-80
2023/07/25 16:11:50;;;;;;;2.22;0.70;;;;;;;;;;4934423;29;20083;-80
2023/07/25 16:14:27;;;;;;;3.65;0.98;;;;;;;;;;4929535;29;20054;-80
2023/07/25 16:16:58;;;;;;;2.58;0.60;;;;;;;;;;4926505;29;20048;-80
2023/07/25 16:22:49;;;;;;;2.22;0.63;;;;;;;;;;4931289;29;20091;-81
2023/07/25 16:25:20;;;;;;;2.38;0.60;;;;;;;;;;4855107;29;20041;-80
2023/07/25 16:28:19;;;;;;;;;;;;;;;;;;;;;
2023/07/25 16:31:11;;;;;;;2.30;0.65;;;;;;;;;;4846948;29;20050;-81
2023/07/25 16:33:39;;;;;;;1.57;0.70;;;;;;;;;;4849799;29;20077;-81
2023/07/25 16:36:05;;;;;;;2.85;0.77;;;;;;;;;;4917189;29;20126;-81
2023/07/25 16:38:34;;;;;;;5.07;1.33;;;;;;;;;;4931295;29;20139;-80
2023/07/25 16:41:01;;;;;;;4.05;0.90;;;;;;;;;;4933358;29;20748;-80
2023/07/25 16:43:30;;;;;;;4.28;0.80;;;;;;;;;;4934003;29;20523;-81
2023/07/25 16:45:56;;;;;;;5.07;1.10;;;;;;;;;;4913635;29;20043;-81
2023/07/25 16:48:22;;;;;;;10.88;1.45;;;;;;;;;;4932265;29;20047;-81
2023/07/25 16:50:48;;;;;;;5.65;0.98;;;;;;;;;;4909630;29;20049;-82
2023/07/25 16:53:15;;;;;;;3.75;1.00;;;;;;;;;;4919867;29;20048;-81
2023/07/25 16:55:41;;;;;;;6.93;1.20;;;;;;;;;;4934901;28;20054;-81
2023/07/25 16:58:07;;;;;;;2.33;0.65;;;;;;;;;;4934264;29;20074;-81
2023/07/25 17:00:33;;;;;;;8.90;0.85;;;;;;;;;;4950415;29;20125;-81
2023/07/25 17:02:59;;;;;;;2.33;0.70;;;;;;;;;;4952574;29;20035;-81
2023/07/25 17:05:26;;;;;;;5.68;0.60;;;;;;;;;;4952273;29;20059;-80
2023/07/25 17:07:52;;;;;;;1.95;0.50;;;;;;;;;;4936908;29;20043;-82
2023/07/25 17:10:18;;;;;;;2.72;0.75;;;;;;;;;;4949143;29;20039;-82
2023/07/25 17:12:44;;;;;;;3.00;0.65;;;;;;;;;;4937325;29;20039;-81
2023/07/25 17:15:10;;;;;;;5.57;1.27;;;;;;;;;;4952243;29;20082;-80
2023/07/25 17:17:36;;;;;;;5.15;1.02;;;;;;;;;;4949563;29;20071;-81
2023/07/25 17:20:02;;;;;;;3.13;0.77;;;;;;;;;;4932353;29;20058;-81
2023/07/25 17:22:28;;;;;;;4.50;0.98;;;;;;;;;;4946597;29;20036;-81
2023/07/25 17:24:54;;;;;;;8.63;1.05;;;;;;;;;;4949337;29;20505;-81
2023/07/25 17:27:20;;;;;;;3.75;0.82;;;;;;;;;;4934170;29;20035;-81
2023/07/25 17:29:46;;;;;;;2.33;0.70;;;;;;;;;;4934526;29;20130;-81
2023/07/25 17:32:12;;;;;;;6.53;0.75;;;;;;;;;;4952746;29;20050;-81
2023/07/25 17:34:38;;;;;;;1.98;0.60;;;;;;;;;;4939583;29;20047;-81
2023/07/25 17:37:06;;;;;;;6.70;0.90;;;;;;;;;;4948909;29;20390;-81
2023/07/25 17:39:32;;;;;;;8.32;1.10;;;;;;;;;;4928983;29;20406;-81
2023/07/25 17:41:58;;;;;;;15.23;1.58;;;;;;;;;;4945646;29;20047;-80
2023/07/25 17:44:24;;;;;;;8.45;1.58;;;;;;;;;;4951849;29;20600;-81
2023/07/25 17:46:50;;;;;;;8.02;1.50;;;;;;;;;;4952135;29;20031;-81
2023/07/25 17:49:16;;;;;;;5.43;1.00;;;;;;;;;;4936635;29;20531;-81
2023/07/25 17:51:42;;;;;;;4.25;0.90;;;;;;;;;;4946176;29;20589;-82
2023/07/25 17:54:08;;;;;;;6.85;1.98;;;;;;;;;;4943296;29;20095;-83
2023/07/25 17:56:34;;;;;;;5.68;1.10;;;;;;;;;;4939705;29;20067;-82
2023/07/25 18:08:22;;;;;;;;;;;;;;;;;;;;;
2023/07/25 18:11:40;;;;;;;;;;;;;;;;;;;;;
2023/07/25 18:14:09;;;;;;;5.40;1.20;;;;;;;;;;4924722;29;20054;-82
2023/07/25 18:16:35;;;;;;;15.27;2.10;;;;;;;;;;4936147;29;20047;-82
2023/07/25 18:19:01;;;;;;;8.70;2.28;;;;;;;;;;4936333;29;20134;-80
2023/07/25 18:21:29;;;;;;;2.80;0.80;;;;;;;;;;4933565;29;20039;-83
2023/07/25 18:23:55;;;;;;;1.55;0.50;;;;;;;;;;4917001;29;20096;-83
2023/07/25 18:26:34;;;;;;;3.65;0.93;;;;;;;;;;4932988;29;20048;-82
2023/07/25 18:29:03;;;;;;;5.07;0.90;;;;;;;;;;4927221;29;20550;-82
2023/07/25 18:31:46;;;;;;;4.00;0.70;;;;;;;;;;4933344;29;20036;-81
